Terminal Aerodrome Forecast
Issued by NWS

Home | Current Version | Previous Version | Text Only | Print | Product List | Glossary On
Versions: 1 2 3 4 5 6 7 8 9 10 11 12 13 14 15
000
FTUS42 KMLB 231100 RRA
TAFSFB
TAF
KSFB 231145Z 2312/2412 16008KT P6SM SCT025 BKN050 OVC200
      WS010/16036KT
     FM231500 17014G20KT P6SM BKN025
      TEMPO 2315/2318 BKN025
     FM231900 17015G23KT P6SM VCSH BKN035 BKN060
     FM240200 18007KT P6SM SCT035 BKN200
     FM240600 19006KT 5SM BR OVC004=

USA.gov is the U.S. government's official web portal to all federal, state and local government web resources and services.